sensor_id;sensor_type;location;lat;lon;timestamp;temperature;humidity
22430;DHT22;11382;48.086;11.632;2023-04-06T00:02:17;-0.50;99.90
22430;DHT22;11382;48.086;11.632;2023-04-06T00:04:45;-0.50;99.90
22430;DHT22;11382;48.086;11.632;2023-04-06T00:07:13;-0.50;99.90
22430;DHT22;11382;48.086;11.632;2023-04-06T00:09:42;-0.60;99.90
22430;DHT22;11382;48.086;11.632;2023-04-06T00:12:09;-0.50;99.90
22430;DHT22;11382;48.086;11.632;2023-04-06T00:14:37;-0.50;99.90
22430;DHT22;11382;48.086;11.632;2023-04-06T00:17:07;-0.60;99.90
22430;DHT22;11382;48.086;11.632;2023-04-06T00:19:36;-0.70;99.90
22430;DHT22;11382;48.086;11.632;2023-04-06T00:22:04;-0.70;99.90
22430;DHT22;11382;48.086;11.632;2023-04-06T00:24:32;-0.70;99.90
22430;DHT22;11382;48.086;11.632;2023-04-06T00:27:00;-0.80;99.90
22430;DHT22;11382;48.086;11.632;2023-04-06T00:29:28;-0.80;99.90
22430;DHT22;11382;48.086;11.632;2023-04-06T00:31:56;-0.70;99.90
22430;DHT22;11382;48.086;11.632;2023-04-06T00:34:24;-0.70;99.90
22430;DHT22;11382;48.086;11.632;2023-04-06T00:36:53;-0.80;99.90
22430;DHT22;11382;48.086;11.632;2023-04-06T00:39:21;-0.80;99.90
22430;DHT22;11382;48.086;11.632;2023-04-06T00:41:51;-0.80;99.90
22430;DHT22;11382;48.086;11.632;2023-04-06T00:44:19;-0.80;99.90
22430;DHT22;11382;48.086;11.632;2023-04-06T00:46:47;-0.80;99.90
22430;DHT22;11382;48.086;11.632;2023-04-06T00:49:16;-0.90;99.90
22430;DHT22;11382;48.086;11.632;2023-04-06T00:51:44;-0.90;99.90
22430;DHT22;11382;48.086;11.632;2023-04-06T00:54:15;-0.90;99.90
22430;DHT22;11382;48.086;11.632;2023-04-06T00:56:43;-0.90;99.90
22430;DHT22;11382;48.086;11.632;2023-04-06T00:59:12;-0.90;99.90
22430;DHT22;11382;48.086;11.632;2023-04-06T01:01:40;-0.90;99.90
22430;DHT22;11382;48.086;11.632;2023-04-06T01:04:23;-1.00;99.90
22430;DHT22;11382;48.086;11.632;2023-04-06T01:06:53;-1.00;99.90
22430;DHT22;11382;48.086;11.632;2023-04-06T01:09:28;-0.90;99.90
22430;DHT22;11382;48.086;11.632;2023-04-06T01:12:00;-0.90;99.90
22430;DHT22;11382;48.086;11.632;2023-04-06T01:14:30;-1.00;99.90
22430;DHT22;11382;48.086;11.632;2023-04-06T01:17:00;-1.00;99.90
22430;DHT22;11382;48.086;11.632;2023-04-06T01:19:31;-1.00;99.90
22430;DHT22;11382;48.086;11.632;2023-04-06T01:21:59;-1.00;99.90
22430;DHT22;11382;48.086;11.632;2023-04-06T01:24:31;-1.00;99.90
22430;DHT22;11382;48.086;11.632;2023-04-06T01:27:15;-1.10;99.90
22430;DHT22;11382;48.086;11.632;2023-04-06T01:29:48;-1.10;99.90
22430;DHT22;11382;48.086;11.632;2023-04-06T01:32:31;-1.10;99.90
22430;DHT22;11382;48.086;11.632;2023-04-06T01:34:59;-1.10;99.90
22430;DHT22;11382;48.086;11.632;2023-04-06T01:37:29;-1.30;99.90
22430;DHT22;11382;48.086;11.632;2023-04-06T01:40:04;-1.30;99.90
22430;DHT22;11382;48.086;11.632;2023-04-06T01:42:41;-1.40;99.90
22430;DHT22;11382;48.086;11.632;2023-04-06T01:45:11;-1.40;99.90
22430;DHT22;11382;48.086;11.632;2023-04-06T01:47:39;-1.50;99.90
22430;DHT22;11382;48.086;11.632;2023-04-06T01:50:08;-1.50;99.90
22430;DHT22;11382;48.086;11.632;2023-04-06T01:52:42;-1.60;99.90
22430;DHT22;11382;48.086;11.632;2023-04-06T01:55:12;-1.60;99.90
22430;DHT22;11382;48.086;11.632;2023-04-06T01:57:57;-1.50;99.90
22430;DHT22;11382;48.086;11.632;2023-04-06T02:00:34;-1.40;99.90
22430;DHT22;11382;48.086;11.632;2023-04-06T02:03:02;-1.50;99.90
22430;DHT22;11382;48.086;11.632;2023-04-06T02:05:32;-1.50;99.90
22430;DHT22;11382;48.086;11.632;2023-04-06T02:08:15;-1.60;99.90
22430;DHT22;11382;48.086;11.632;2023-04-06T02:10:44;-1.60;99.90
22430;DHT22;11382;48.086;11.632;2023-04-06T02:13:22;-1.70;99.90
22430;DHT22;11382;48.086;11.632;2023-04-06T02:15:52;-1.70;99.90
22430;DHT22;11382;48.086;11.632;2023-04-06T02:18:20;-1.60;99.90
22430;DHT22;11382;48.086;11.632;2023-04-06T02:20:49;-1.60;99.90
22430;DHT22;11382;48.086;11.632;2023-04-06T02:23:17;-1.60;99.90
22430;DHT22;11382;48.086;11.632;2023-04-06T02:25:46;-1.60;99.90
22430;DHT22;11382;48.086;11.632;2023-04-06T02:28:14;-1.70;99.90
22430;DHT22;11382;48.086;11.632;2023-04-06T02:30:42;-1.70;99.90
22430;DHT22;11382;48.086;11.632;2023-04-06T02:33:11;-1.70;99.90
22430;DHT22;11382;48.086;11.632;2023-04-06T02:35:44;-1.70;99.90
22430;DHT22;11382;48.086;11.632;2023-04-06T02:38:12;-1.80;99.90
22430;DHT22;11382;48.086;11.632;2023-04-06T02:40:40;-1.80;99.90
22430;DHT22;11382;48.086;11.632;2023-04-06T02:43:18;-1.80;99.90
22430;DHT22;11382;48.086;11.632;2023-04-06T02:45:47;-1.80;99.90
22430;DHT22;11382;48.086;11.632;2023-04-06T02:48:18;-1.80;99.90
22430;DHT22;11382;48.086;11.632;2023-04-06T02:50:46;-1.80;99.90
22430;DHT22;11382;48.086;11.632;2023-04-06T02:53:13;-1.80;99.90
22430;DHT22;11382;48.086;11.632;2023-04-06T02:55:42;-1.80;99.90
22430;DHT22;11382;48.086;11.632;2023-04-06T02:58:10;-1.90;99.90
22430;DHT22;11382;48.086;11.632;2023-04-06T03:00:47;-1.90;99.90
22430;DHT22;11382;48.086;11.632;2023-04-06T03:03:15;-1.90;99.90
22430;DHT22;11382;48.086;11.632;2023-04-06T03:05:44;-2.00;99.90
22430;DHT22;11382;48.086;11.632;2023-04-06T03:08:14;-1.90;99.90
22430;DHT22;11382;48.086;11.632;2023-04-06T03:10:44;-2.00;99.90
22430;DHT22;11382;48.086;11.632;2023-04-06T03:13:14;-1.90;99.90
22430;DHT22;11382;48.086;11.632;2023-04-06T03:15:49;-1.90;99.90
22430;DHT22;11382;48.086;11.632;2023-04-06T03:18:22;-2.00;99.90
22430;DHT22;11382;48.086;11.632;2023-04-06T03:20:51;-1.90;99.90
22430;DHT22;11382;48.086;11.632;2023-04-06T03:23:24;-1.90;99.90
22430;DHT22;11382;48.086;11.632;2023-04-06T03:25:57;-1.80;99.90
22430;DHT22;11382;48.086;11.632;2023-04-06T03:28:25;-1.80;99.90
22430;DHT22;11382;48.086;11.632;2023-04-06T03:30:58;-1.80;99.90
22430;DHT22;11382;48.086;11.632;2023-04-06T03:33:52;-1.90;99.90
22430;DHT22;11382;48.086;11.632;2023-04-06T03:36:25;-2.00;99.90
22430;DHT22;11382;48.086;11.632;2023-04-06T03:38:55;-2.00;99.90
22430;DHT22;11382;48.086;11.632;2023-04-06T03:41:23;-2.00;99.90
22430;DHT22;11382;48.086;11.632;2023-04-06T03:44:00;-2.00;99.90
22430;DHT22;11382;48.086;11.632;2023-04-06T03:46:29;-2.00;99.90
22430;DHT22;11382;48.086;11.632;2023-04-06T03:48:59;-1.90;99.90
22430;DHT22;11382;48.086;11.632;2023-04-06T03:51:27;-1.90;99.90
22430;DHT22;11382;48.086;11.632;2023-04-06T03:53:55;-2.00;99.90
22430;DHT22;11382;48.086;11.632;2023-04-06T03:56:23;-2.00;99.90
22430;DHT22;11382;48.086;11.632;2023-04-06T03:58:53;-2.00;99.90
22430;DHT22;11382;48.086;11.632;2023-04-06T04:01:21;-2.00;99.90
22430;DHT22;11382;48.086;11.632;2023-04-06T04:03:51;-2.00;99.90
22430;DHT22;11382;48.086;11.632;2023-04-06T04:06:19;-2.00;99.90
22430;DHT22;11382;48.086;11.632;2023-04-06T04:08:47;-2.10;99.90
22430;DHT22;11382;48.086;11.632;2023-04-06T04:11:15;-2.10;99.90
22430;DHT22;11382;48.086;11.632;2023-04-06T04:13:47;-2.10;99.90
22430;DHT22;11382;48.086;11.632;2023-04-06T04:16:15;-2.00;99.90
22430;DHT22;11382;48.086;11.632;2023-04-06T04:18:43;-2.00;99.90
22430;DHT22;11382;48.086;11.632;2023-04-06T04:21:13;-2.10;99.90
22430;DHT22;11382;48.086;11.632;2023-04-06T04:23:41;-2.10;99.90
22430;DHT22;11382;48.086;11.632;2023-04-06T04:26:09;-2.10;99.90
22430;DHT22;11382;48.086;11.632;2023-04-06T04:28:37;-2.10;99.90
22430;DHT22;11382;48.086;11.632;2023-04-06T04:31:05;-2.20;99.90
22430;DHT22;11382;48.086;11.632;2023-04-06T04:33:34;-2.10;99.90
22430;DHT22;11382;48.086;11.632;2023-04-06T04:36:08;-2.10;99.90
22430;DHT22;11382;48.086;11.632;2023-04-06T04:38:42;-2.00;99.90
22430;DHT22;11382;48.086;11.632;2023-04-06T04:41:10;-2.00;99.90
22430;DHT22;11382;48.086;11.632;2023-04-06T04:43:41;-2.00;99.90
22430;DHT22;11382;48.086;11.632;2023-04-06T04:46:11;-1.90;99.90
22430;DHT22;11382;48.086;11.632;2023-04-06T04:48:42;-1.90;99.90
22430;DHT22;11382;48.086;11.632;2023-04-06T04:51:10;-1.90;99.90
22430;DHT22;11382;48.086;11.632;2023-04-06T04:53:51;-1.90;99.90
22430;DHT22;11382;48.086;11.632;2023-04-06T04:56:23;-1.90;99.90
22430;DHT22;11382;48.086;11.632;2023-04-06T04:58:57;-1.90;99.90
22430;DHT22;11382;48.086;11.632;2023-04-06T05:01:28;-1.90;99.90
22430;DHT22;11382;48.086;11.632;2023-04-06T05:04:06;-1.80;99.90
22430;DHT22;11382;48.086;11.632;2023-04-06T05:06:34;-1.80;99.90
22430;DHT22;11382;48.086;11.632;2023-04-06T05:09:03;-1.60;99.90
22430;DHT22;11382;48.086;11.632;2023-04-06T05:11:32;-1.30;99.90
22430;DHT22;11382;48.086;11.632;2023-04-06T05:14:00;-1.00;99.90
22430;DHT22;11382;48.086;11.632;2023-04-06T05:16:28;-0.80;99.90
22430;DHT22;11382;48.086;11.632;2023-04-06T05:18:56;-0.60;99.90
22430;DHT22;11382;48.086;11.632;2023-04-06T05:21:35;-0.50;99.90
22430;DHT22;11382;48.086;11.632;2023-04-06T05:24:07;-0.30;99.90
22430;DHT22;11382;48.086;11.632;2023-04-06T05:26:37;-0.20;99.90
22430;DHT22;11382;48.086;11.632;2023-04-06T05:29:11;-0.10;99.90
22430;DHT22;11382;48.086;11.632;2023-04-06T05:31:40;0.30;99.90
22430;DHT22;11382;48.086;11.632;2023-04-06T05:34:08;0.70;99.90
22430;DHT22;11382;48.086;11.632;2023-04-06T05:36:37;1.10;99.90
22430;DHT22;11382;48.086;11.632;2023-04-06T05:39:17;1.40;99.90
22430;DHT22;11382;48.086;11.632;2023-04-06T05:41:49;1.90;99.90
22430;DHT22;11382;48.086;11.632;2023-04-06T05:44:28;2.20;99.90
22430;DHT22;11382;48.086;11.632;2023-04-06T05:47:05;2.70;99.90
22430;DHT22;11382;48.086;11.632;2023-04-06T05:49:34;2.90;99.90
22430;DHT22;11382;48.086;11.632;2023-04-06T05:52:05;3.30;99.90
22430;DHT22;11382;48.086;11.632;2023-04-06T05:54:35;3.10;99.90
22430;DHT22;11382;48.086;11.632;2023-04-06T05:57:03;3.10;99.90
22430;DHT22;11382;48.086;11.632;2023-04-06T05:59:31;3.60;99.90
22430;DHT22;11382;48.086;11.632;2023-04-06T06:01:59;4.20;99.90
22430;DHT22;11382;48.086;11.632;2023-04-06T06:04:31;4.50;99.90
22430;DHT22;11382;48.086;11.632;2023-04-06T06:06:59;5.10;99.90
22430;DHT22;11382;48.086;11.632;2023-04-06T06:09:41;5.40;99.90
22430;DHT22;11382;48.086;11.632;2023-04-06T06:12:18;6.00;99.90
22430;DHT22;11382;48.086;11.632;2023-04-06T06:14:48;6.30;99.90
22430;DHT22;11382;48.086;11.632;2023-04-06T06:17:17;6.40;99.90
22430;DHT22;11382;48.086;11.632;2023-04-06T06:19:47;6.80;99.90
22430;DHT22;11382;48.086;11.632;2023-04-06T06:22:15;6.80;99.90
22430;DHT22;11382;48.086;11.632;2023-04-06T06:24:47;7.10;99.90
22430;DHT22;11382;48.086;11.632;2023-04-06T06:27:19;7.70;99.70
22430;DHT22;11382;48.086;11.632;2023-04-06T06:29:47;7.80;99.10
22430;DHT22;11382;48.086;11.632;2023-04-06T06:32:16;8.10;98.30
22430;DHT22;11382;48.086;11.632;2023-04-06T06:34:47;8.20;97.40
22430;DHT22;11382;48.086;11.632;2023-04-06T06:37:16;8.00;97.90
22430;DHT22;11382;48.086;11.632;2023-04-06T06:39:46;8.80;96.80
22430;DHT22;11382;48.086;11.632;2023-04-06T06:42:14;8.50;95.50
22430;DHT22;11382;48.086;11.632;2023-04-06T06:45:00;8.90;95.20
22430;DHT22;11382;48.086;11.632;2023-04-06T06:47:28;9.00;94.40
22430;DHT22;11382;48.086;11.632;2023-04-06T06:49:56;9.40;94.30
22430;DHT22;11382;48.086;11.632;2023-04-06T06:52:24;10.00;93.50
22430;DHT22;11382;48.086;11.632;2023-04-06T06:54:53;10.40;92.80
22430;DHT22;11382;48.086;11.632;2023-04-06T06:57:23;11.20;92.00
22430;DHT22;11382;48.086;11.632;2023-04-06T06:59:52;12.10;90.20
22430;DHT22;11382;48.086;11.632;2023-04-06T07:02:21;12.00;87.60
22430;DHT22;11382;48.086;11.632;2023-04-06T07:04:49;10.40;88.70
22430;DHT22;11382;48.086;11.632;2023-04-06T07:07:17;10.40;90.60
22430;DHT22;11382;48.086;11.632;2023-04-06T07:09:45;12.10;89.10
22430;DHT22;11382;48.086;11.632;2023-04-06T07:12:14;13.70;85.50
22430;DHT22;11382;48.086;11.632;2023-04-06T07:14:43;15.20;76.60
22430;DHT22;11382;48.086;11.632;2023-04-06T07:17:12;14.80;74.50
22430;DHT22;11382;48.086;11.632;2023-04-06T07:19:40;15.20;72.40
22430;DHT22;11382;48.086;11.632;2023-04-06T07:22:09;15.90;67.80
22430;DHT22;11382;48.086;11.632;2023-04-06T07:24:37;14.70;66.90
22430;DHT22;11382;48.086;11.632;2023-04-06T07:27:05;14.50;67.70
22430;DHT22;11382;48.086;11.632;2023-04-06T07:29:35;14.30;69.80
22430;DHT22;11382;48.086;11.632;2023-04-06T07:32:03;14.40;69.40
22430;DHT22;11382;48.086;11.632;2023-04-06T07:34:32;16.50;65.90
22430;DHT22;11382;48.086;11.632;2023-04-06T07:37:00;16.40;60.90
22430;DHT22;11382;48.086;11.632;2023-04-06T07:39:30;14.90;62.90
22430;DHT22;11382;48.086;11.632;2023-04-06T07:41:59;15.70;62.60
22430;DHT22;11382;48.086;11.632;2023-04-06T07:44:27;14.50;62.90
22430;DHT22;11382;48.086;11.632;2023-04-06T07:46:57;15.40;65.00
22430;DHT22;11382;48.086;11.632;2023-04-06T07:49:25;15.80;61.20
22430;DHT22;11382;48.086;11.632;2023-04-06T07:51:54;17.30;59.30
22430;DHT22;11382;48.086;11.632;2023-04-06T07:54:22;19.10;58.90
22430;DHT22;11382;48.086;11.632;2023-04-06T07:56:50;19.10;55.50
22430;DHT22;11382;48.086;11.632;2023-04-06T07:59:18;19.00;54.70
22430;DHT22;11382;48.086;11.632;2023-04-06T08:01:46;18.00;53.30
22430;DHT22;11382;48.086;11.632;2023-04-06T08:04:16;18.50;52.20
22430;DHT22;11382;48.086;11.632;2023-04-06T08:06:44;18.80;51.30
22430;DHT22;11382;48.086;11.632;2023-04-06T08:09:12;18.50;51.10
22430;DHT22;11382;48.086;11.632;2023-04-06T08:11:40;18.30;52.50
22430;DHT22;11382;48.086;11.632;2023-04-06T08:14:08;19.40;50.20
22430;DHT22;11382;48.086;11.632;2023-04-06T08:16:37;18.00;50.00
22430;DHT22;11382;48.086;11.632;2023-04-06T08:19:05;17.90;49.20
22430;DHT22;11382;48.086;11.632;2023-04-06T08:21:35;18.10;49.60
22430;DHT22;11382;48.086;11.632;2023-04-06T08:24:04;19.20;48.90
22430;DHT22;11382;48.086;11.632;2023-04-06T08:26:34;19.60;47.10
22430;DHT22;11382;48.086;11.632;2023-04-06T08:29:02;20.80;46.30
22430;DHT22;11382;48.086;11.632;2023-04-06T08:31:30;21.80;43.40
22430;DHT22;11382;48.086;11.632;2023-04-06T08:34:01;22.50;44.20
22430;DHT22;11382;48.086;11.632;2023-04-06T08:36:29;22.30;40.60
22430;DHT22;11382;48.086;11.632;2023-04-06T08:39:00;22.30;41.50
22430;DHT22;11382;48.086;11.632;2023-04-06T08:41:28;21.50;41.90
22430;DHT22;11382;48.086;11.632;2023-04-06T08:43:57;19.90;43.50
22430;DHT22;11382;48.086;11.632;2023-04-06T08:46:26;20.70;43.80
22430;DHT22;11382;48.086;11.632;2023-04-06T08:48:57;22.00;42.20
22430;DHT22;11382;48.086;11.632;2023-04-06T08:51:26;20.60;42.30
22430;DHT22;11382;48.086;11.632;2023-04-06T08:53:56;21.10;43.90
22430;DHT22;11382;48.086;11.632;2023-04-06T08:56:28;22.00;40.30
22430;DHT22;11382;48.086;11.632;2023-04-06T08:58:56;21.30;42.30
22430;DHT22;11382;48.086;11.632;2023-04-06T09:01:26;23.20;40.50
22430;DHT22;11382;48.086;11.632;2023-04-06T09:03:57;22.80;38.90
22430;DHT22;11382;48.086;11.632;2023-04-06T09:06:27;21.80;40.60
22430;DHT22;11382;48.086;11.632;2023-04-06T09:08:55;22.80;39.50
22430;DHT22;11382;48.086;11.632;2023-04-06T09:11:23;23.40;36.80
22430;DHT22;11382;48.086;11.632;2023-04-06T09:13:54;24.60;37.60
22430;DHT22;11382;48.086;11.632;2023-04-06T09:16:22;24.10;36.90
22430;DHT22;11382;48.086;11.632;2023-04-06T09:18:50;22.70;37.60
22430;DHT22;11382;48.086;11.632;2023-04-06T09:21:19;22.20;38.30
22430;DHT22;11382;48.086;11.632;2023-04-06T09:23:58;22.70;37.00
22430;DHT22;11382;48.086;11.632;2023-04-06T09:26:27;22.80;37.60
22430;DHT22;11382;48.086;11.632;2023-04-06T09:28:57;23.40;36.90
22430;DHT22;11382;48.086;11.632;2023-04-06T09:31:29;22.70;37.20
22430;DHT22;11382;48.086;11.632;2023-04-06T09:34:00;22.60;36.30
22430;DHT22;11382;48.086;11.632;2023-04-06T09:36:31;23.10;36.40
22430;DHT22;11382;48.086;11.632;2023-04-06T09:39:01;23.50;35.20
22430;DHT22;11382;48.086;11.632;2023-04-06T09:41:30;24.10;36.90
22430;DHT22;11382;48.086;11.632;2023-04-06T09:44:04;26.40;33.90
22430;DHT22;11382;48.086;11.632;2023-04-06T09:46:35;27.40;32.90
22430;DHT22;11382;48.086;11.632;2023-04-06T09:49:27;25.20;33.00
22430;DHT22;11382;48.086;11.632;2023-04-06T09:51:58;27.20;34.10
22430;DHT22;11382;48.086;11.632;2023-04-06T09:54:28;25.50;33.40
22430;DHT22;11382;48.086;11.632;2023-04-06T09:57:01;24.80;33.60
22430;DHT22;11382;48.086;11.632;2023-04-06T09:59:37;24.00;36.20
22430;DHT22;11382;48.086;11.632;2023-04-06T10:02:09;23.50;36.30
22430;DHT22;11382;48.086;11.632;2023-04-06T10:04:43;23.30;38.10
22430;DHT22;11382;48.086;11.632;2023-04-06T10:07:17;23.30;37.00
22430;DHT22;11382;48.086;11.632;2023-04-06T10:09:45;22.10;35.30
22430;DHT22;11382;48.086;11.632;2023-04-06T10:12:15;22.70;38.10
22430;DHT22;11382;48.086;11.632;2023-04-06T10:14:45;23.90;37.40
22430;DHT22;11382;48.086;11.632;2023-04-06T10:17:13;22.90;35.40
22430;DHT22;11382;48.086;11.632;2023-04-06T10:19:46;22.60;37.70
22430;DHT22;11382;48.086;11.632;2023-04-06T10:22:21;22.40;37.00
22430;DHT22;11382;48.086;11.632;2023-04-06T10:24:50;19.50;39.20
22430;DHT22;11382;48.086;11.632;2023-04-06T10:27:27;19.50;41.60
22430;DHT22;11382;48.086;11.632;2023-04-06T10:30:01;19.90;40.90
22430;DHT22;11382;48.086;11.632;2023-04-06T10:32:34;19.80;39.20
22430;DHT22;11382;48.086;11.632;2023-04-06T10:35:07;19.50;40.90
22430;DHT22;11382;48.086;11.632;2023-04-06T10:37:53;18.50;43.10
22430;DHT22;11382;48.086;11.632;2023-04-06T10:40:25;19.20;40.30
22430;DHT22;11382;48.086;11.632;2023-04-06T10:42:53;19.10;41.30
22430;DHT22;11382;48.086;11.632;2023-04-06T10:45:24;18.30;42.20
22430;DHT22;11382;48.086;11.632;2023-04-06T10:47:53;17.60;42.60
22430;DHT22;11382;48.086;11.632;2023-04-06T10:50:22;17.20;44.00
22430;DHT22;11382;48.086;11.632;2023-04-06T10:52:59;16.50;45.60
22430;DHT22;11382;48.086;11.632;2023-04-06T10:55:28;16.00;46.60
22430;DHT22;11382;48.086;11.632;2023-04-06T10:57:56;16.40;46.10
22430;DHT22;11382;48.086;11.632;2023-04-06T11:00:26;17.60;45.80
22430;DHT22;11382;48.086;11.632;2023-04-06T11:03:12;19.50;43.40
22430;DHT22;11382;48.086;11.632;2023-04-06T11:05:43;19.40;42.00
22430;DHT22;11382;48.086;11.632;2023-04-06T11:08:22;18.00;41.10
22430;DHT22;11382;48.086;11.632;2023-04-06T11:10:51;18.00;43.30
22430;DHT22;11382;48.086;11.632;2023-04-06T11:13:19;17.40;44.30
22430;DHT22;11382;48.086;11.632;2023-04-06T11:15:48;17.60;45.00
22430;DHT22;11382;48.086;11.632;2023-04-06T11:18:17;17.40;43.60
22430;DHT22;11382;48.086;11.632;2023-04-06T11:20:47;18.40;46.10
22430;DHT22;11382;48.086;11.632;2023-04-06T11:23:22;17.70;42.50
22430;DHT22;11382;48.086;11.632;2023-04-06T11:25:51;17.30;44.70
22430;DHT22;11382;48.086;11.632;2023-04-06T11:28:21;16.50;45.80
22430;DHT22;11382;48.086;11.632;2023-04-06T11:30:51;15.80;46.00
22430;DHT22;11382;48.086;11.632;2023-04-06T11:33:20;16.30;47.80
22430;DHT22;11382;48.086;11.632;2023-04-06T11:35:49;16.50;45.30
22430;DHT22;11382;48.086;11.632;2023-04-06T11:38:18;18.70;44.60
22430;DHT22;11382;48.086;11.632;2023-04-06T11:40:52;19.70;41.80
22430;DHT22;11382;48.086;11.632;2023-04-06T11:43:25;19.40;42.40
22430;DHT22;11382;48.086;11.632;2023-04-06T11:46:01;20.40;42.10
22430;DHT22;11382;48.086;11.632;2023-04-06T11:48:30;21.20;40.00
22430;DHT22;11382;48.086;11.632;2023-04-06T11:50:59;21.60;39.60
22430;DHT22;11382;48.086;11.632;2023-04-06T11:53:28;21.40;38.40
22430;DHT22;11382;48.086;11.632;2023-04-06T11:55:56;21.80;38.30
22430;DHT22;11382;48.086;11.632;2023-04-06T11:58:26;22.20;38.40
22430;DHT22;11382;48.086;11.632;2023-04-06T12:01:04;19.80;40.90
22430;DHT22;11382;48.086;11.632;2023-04-06T12:03:32;18.30;43.10
22430;DHT22;11382;48.086;11.632;2023-04-06T12:06:00;17.10;45.70
22430;DHT22;11382;48.086;11.632;2023-04-06T12:08:29;16.20;47.00
22430;DHT22;11382;48.086;11.632;2023-04-06T12:10:57;15.80;48.40
22430;DHT22;11382;48.086;11.632;2023-04-06T12:13:26;14.90;46.20
22430;DHT22;11382;48.086;11.632;2023-04-06T12:15:54;15.10;48.20
22430;DHT22;11382;48.086;11.632;2023-04-06T12:18:23;14.80;48.10
22430;DHT22;11382;48.086;11.632;2023-04-06T12:20:52;14.60;49.60
22430;DHT22;11382;48.086;11.632;2023-04-06T12:23:20;13.90;47.40
22430;DHT22;11382;48.086;11.632;2023-04-06T12:25:48;14.10;48.70
22430;DHT22;11382;48.086;11.632;2023-04-06T12:28:16;14.00;51.40
22430;DHT22;11382;48.086;11.632;2023-04-06T12:30:44;13.90;51.30
22430;DHT22;11382;48.086;11.632;2023-04-06T12:33:12;14.10;53.20
22430;DHT22;11382;48.086;11.632;2023-04-06T12:35:41;14.30;51.50
22430;DHT22;11382;48.086;11.632;2023-04-06T12:38:09;14.60;51.90
22430;DHT22;11382;48.086;11.632;2023-04-06T12:40:38;14.50;51.90
22430;DHT22;11382;48.086;11.632;2023-04-06T12:43:06;14.50;52.60
22430;DHT22;11382;48.086;11.632;2023-04-06T12:45:35;14.40;51.30
22430;DHT22;11382;48.086;11.632;2023-04-06T12:48:03;14.80;50.40
22430;DHT22;11382;48.086;11.632;2023-04-06T12:50:31;14.40;47.90
22430;DHT22;11382;48.086;11.632;2023-04-06T12:53:00;15.20;51.50
22430;DHT22;11382;48.086;11.632;2023-04-06T12:55:30;14.80;52.10
22430;DHT22;11382;48.086;11.632;2023-04-06T12:58:00;14.90;52.10
22430;DHT22;11382;48.086;11.632;2023-04-06T13:00:28;15.10;50.90
22430;DHT22;11382;48.086;11.632;2023-04-06T13:02:57;15.00;52.30
22430;DHT22;11382;48.086;11.632;2023-04-06T13:05:26;14.70;52.20
22430;DHT22;11382;48.086;11.632;2023-04-06T13:07:56;14.40;50.30
22430;DHT22;11382;48.086;11.632;2023-04-06T13:10:26;14.70;53.20
22430;DHT22;11382;48.086;11.632;2023-04-06T13:12:54;15.00;51.30
22430;DHT22;11382;48.086;11.632;2023-04-06T13:15:22;14.90;52.50
22430;DHT22;11382;48.086;11.632;2023-04-06T13:17:50;14.80;52.40
22430;DHT22;11382;48.086;11.632;2023-04-06T13:20:21;14.70;50.50
22430;DHT22;11382;48.086;11.632;2023-04-06T13:22:51;13.50;48.60
22430;DHT22;11382;48.086;11.632;2023-04-06T13:25:19;14.30;53.20
22430;DHT22;11382;48.086;11.632;2023-04-06T13:27:48;14.50;51.50
22430;DHT22;11382;48.086;11.632;2023-04-06T13:30:17;15.00;51.90
22430;DHT22;11382;48.086;11.632;2023-04-06T13:32:45;15.10;50.10
22430;DHT22;11382;48.086;11.632;2023-04-06T13:35:13;15.10;50.50
22430;DHT22;11382;48.086;11.632;2023-04-06T13:37:41;14.90;49.80
22430;DHT22;11382;48.086;11.632;2023-04-06T13:40:10;15.00;49.20
22430;DHT22;11382;48.086;11.632;2023-04-06T13:42:38;15.10;49.40
22430;DHT22;11382;48.086;11.632;2023-04-06T13:45:09;15.00;48.00
22430;DHT22;11382;48.086;11.632;2023-04-06T13:47:38;15.10;48.90
22430;DHT22;11382;48.086;11.632;2023-04-06T13:50:07;15.00;48.40
22430;DHT22;11382;48.086;11.632;2023-04-06T13:52:35;14.50;49.30
22430;DHT22;11382;48.086;11.632;2023-04-06T13:55:04;14.70;51.60
22430;DHT22;11382;48.086;11.632;2023-04-06T13:57:32;15.00;51.30
22430;DHT22;11382;48.086;11.632;2023-04-06T14:00:00;14.90;51.90
22430;DHT22;11382;48.086;11.632;2023-04-06T14:02:34;15.30;50.90
22430;DHT22;11382;48.086;11.632;2023-04-06T14:05:02;15.60;50.60
22430;DHT22;11382;48.086;11.632;2023-04-06T14:07:31;15.50;49.80
22430;DHT22;11382;48.086;11.632;2023-04-06T14:09:59;15.10;50.30
22430;DHT22;11382;48.086;11.632;2023-04-06T14:12:27;14.80;49.60
22430;DHT22;11382;48.086;11.632;2023-04-06T14:14:55;14.60;50.50
22430;DHT22;11382;48.086;11.632;2023-04-06T14:17:23;14.50;51.70
22430;DHT22;11382;48.086;11.632;2023-04-06T14:19:52;14.70;51.30
22430;DHT22;11382;48.086;11.632;2023-04-06T14:22:20;14.50;51.50
22430;DHT22;11382;48.086;11.632;2023-04-06T14:24:48;14.40;50.20
22430;DHT22;11382;48.086;11.632;2023-04-06T14:27:16;14.60;50.90
22430;DHT22;11382;48.086;11.632;2023-04-06T14:29:44;14.70;52.00
22430;DHT22;11382;48.086;11.632;2023-04-06T14:32:12;14.50;48.80
22430;DHT22;11382;48.086;11.632;2023-04-06T14:34:40;14.30;49.80
22430;DHT22;11382;48.086;11.632;2023-04-06T14:37:09;14.30;50.30
22430;DHT22;11382;48.086;11.632;2023-04-06T14:39:37;14.20;48.60
22430;DHT22;11382;48.086;11.632;2023-04-06T14:42:05;14.80;50.90
22430;DHT22;11382;48.086;11.632;2023-04-06T14:44:33;15.00;50.70
22430;DHT22;11382;48.086;11.632;2023-04-06T14:47:03;15.00;51.90
22430;DHT22;11382;48.086;11.632;2023-04-06T14:49:32;14.80;50.00
22430;DHT22;11382;48.086;11.632;2023-04-06T14:52:00;14.30;49.10
22430;DHT22;11382;48.086;11.632;2023-04-06T14:54:30;14.10;51.50
22430;DHT22;11382;48.086;11.632;2023-04-06T14:56:58;13.90;52.70
22430;DHT22;11382;48.086;11.632;2023-04-06T14:59:27;13.90;52.80
22430;DHT22;11382;48.086;11.632;2023-04-06T15:02:01;13.80;52.50
22430;DHT22;11382;48.086;11.632;2023-04-06T15:04:30;13.80;53.80
22430;DHT22;11382;48.086;11.632;2023-04-06T15:06:58;13.80;51.40
22430;DHT22;11382;48.086;11.632;2023-04-06T15:09:26;13.90;51.40
22430;DHT22;11382;48.086;11.632;2023-04-06T15:11:55;14.10;52.30
22430;DHT22;11382;48.086;11.632;2023-04-06T15:14:23;14.10;53.00
22430;DHT22;11382;48.086;11.632;2023-04-06T15:16:51;13.80;53.00
22430;DHT22;11382;48.086;11.632;2023-04-06T15:19:19;13.20;52.80
22430;DHT22;11382;48.086;11.632;2023-04-06T15:21:47;12.80;54.20
22430;DHT22;11382;48.086;11.632;2023-04-06T15:24:15;12.50;54.30
22430;DHT22;11382;48.086;11.632;2023-04-06T15:26:43;12.40;54.40
22430;DHT22;11382;48.086;11.632;2023-04-06T15:29:13;12.30;55.40
22430;DHT22;11382;48.086;11.632;2023-04-06T15:31:41;12.30;55.10
22430;DHT22;11382;48.086;11.632;2023-04-06T15:34:09;12.50;55.30
22430;DHT22;11382;48.086;11.632;2023-04-06T15:36:37;13.00;55.00